Terminal Aerodrome Forecast
Issued by NWS Newport/Morehead City, NC

Home | Current Version | Previous Version | Text Only | Print | Product List | Glossary Off
Versions: 1 2 3 4 5 6 7 8 9 10 11 12 13 14 15 16 17 18 19 20 21

000
FTUS42 KMHX 030759 AAA
TAFEWN
TAF AMD
KEWN 030759Z 0308/0406 00000KT 1/2SM FG VV003
     FM031000 00000KT 4SM BR SKC
     FM031100 27005KT P6SM FEW060=

USA.gov is the U.S. government's official web portal to all federal, state and local government web resources and services.